Time;durP1;ratioP1;P1;durP2;ratioP2;P2;SDS_P1;SDS_P2;PMS_P1;PMS_P2;Temp;Humidity;BMP_temperature;BMP_pressure;BME280_temperature;BME280_humidity;BME280_pressure;Samples;Min_cycle;Max_cycle;Signal;HPM_P1;HPM_P2
2022/02/15 00:01:07;;;;;;;10.55;6.13;;;8.80;8.80;;;8.87;54.78;100101.13;4899696;29;20208;-71
2022/02/15 00:03:35;;;;;;;7.43;6.47;;;8.80;8.90;;;8.97;54.72;100104.22;4898877;29;20214;-72
2022/02/15 00:06:05;;;;;;;11.70;6.50;;;8.80;9.00;;;8.84;54.84;100102.38;4898610;29;20206;-72
2022/02/15 00:08:33;;;;;;;10.57;6.60;;;8.80;9.30;;;8.86;55.10;100100.28;4899138;29;20186;-71
2022/02/15 00:11:02;;;;;;;8.55;6.25;;;8.70;9.60;;;8.74;55.24;100099.28;4898984;29;20728;-72
2022/02/15 00:13:30;;;;;;;9.07;5.32;;;8.70;9.80;;;8.76;55.24;100102.63;4899242;29;20187;-69
2022/02/15 00:15:58;;;;;;;7.35;6.50;;;8.70;9.70;;;8.80;55.17;100101.16;4898678;29;20205;-70
2022/02/15 00:18:27;;;;;;;7.90;6.53;;;8.70;9.90;;;8.67;55.44;100098.44;4913393;29;20202;-69
2022/02/15 00:20:55;;;;;;;13.65;6.10;;;8.60;10.10;;;8.68;55.63;100106.34;4898552;29;20202;-69
2022/02/15 00:23:25;;;;;;;8.05;6.28;;;8.60;10.20;;;8.61;55.33;100100.16;4897939;29;20250;-69
2022/02/15 00:25:53;;;;;;;8.07;6.50;;;8.60;10.40;;;8.58;55.96;100099.72;4897519;29;20190;-70
2022/02/15 00:28:22;;;;;;;10.10;6.30;;;8.50;10.90;;;8.60;55.89;100097.66;4897942;29;20190;-70
2022/02/15 00:30:51;;;;;;;7.18;5.82;;;8.50;11.00;;;8.61;55.88;100094.75;4896446;29;20253;-70
2022/02/15 00:33:19;;;;;;;7.82;6.50;;;8.50;11.20;;;8.65;56.05;100105.94;4912340;29;20339;-71
2022/02/15 00:35:48;;;;;;;10.35;7.05;;;8.50;11.70;;;8.57;56.18;100108.84;4897577;29;20178;-72
2022/02/15 00:38:16;;;;;;;8.10;5.97;;;8.50;11.70;;;8.54;56.23;100101.16;4897363;29;20213;-69
2022/02/15 00:40:46;;;;;;;10.82;7.68;;;8.50;11.90;;;8.43;56.54;100108.00;4897492;29;20357;-71
2022/02/15 00:43:15;;;;;;;8.27;6.35;;;8.40;12.40;;;8.24;57.18;100104.25;4897685;29;20267;-69
2022/02/15 00:45:43;;;;;;;8.05;6.03;;;8.30;12.80;;;8.26;57.14;100096.78;4897557;29;20178;-69
2022/02/15 00:48:12;;;;;;;9.35;6.80;;;8.20;13.10;;;8.24;57.01;100104.25;4896828;29;20229;-71
2022/02/15 00:50:41;;;;;;;12.93;7.53;;;8.20;13.60;;;8.11;57.49;100104.22;4898132;29;20187;-70
2022/02/15 00:53:10;;;;;;;8.13;5.47;;;8.10;14.20;;;8.02;58.79;100100.06;4897343;29;20233;-71
2022/02/15 00:55:38;;;;;;;6.90;6.20;;;8.10;16.30;;;8.15;57.54;100100.09;4897150;29;20230;-71
2022/02/15 00:58:08;;;;;;;8.57;6.30;;;8.10;15.50;;;8.23;57.67;100097.19;4897556;29;20734;-69
2022/02/15 01:00:36;;;;;;;10.65;6.75;;;8.20;16.40;;;8.14;57.95;100106.50;4896328;29;20240;-71
2022/02/15 01:03:05;;;;;;;8.05;6.57;;;8.10;16.40;;;7.95;58.60;100103.78;4912252;29;20190;-71
2022/02/15 01:05:33;;;;;;;9.73;7.07;;;8.00;17.00;;;8.05;58.40;100107.75;4898134;29;20197;-71
2022/02/15 01:08:03;;;;;;;9.02;6.15;;;8.00;18.00;;;8.02;58.76;100118.94;4912235;29;20218;-70
2022/02/15 01:10:32;;;;;;;14.65;9.02;;;8.00;18.60;;;8.08;58.44;100115.44;4897381;29;20197;-70
2022/02/15 01:13:01;;;;;;;8.30;5.95;;;8.00;18.70;;;8.12;58.54;100108.59;4912012;29;20202;-70
2022/02/15 01:15:30;;;;;;;12.85;7.03;;;8.00;18.90;;;8.00;59.00;100112.91;4897518;29;20194;-71
2022/02/15 01:17:59;;;;;;;10.40;6.15;;;8.00;19.70;;;8.04;58.96;100116.00;4897786;29;20214;-71
2022/02/15 01:20:27;;;;;;;10.77;6.85;;;8.00;20.10;;;8.09;58.94;100106.28;4897777;29;20210;-71
2022/02/15 01:22:56;;;;;;;8.52;6.00;;;8.00;20.20;;;8.14;58.78;100102.97;4912474;29;20190;-70
2022/02/15 01:25:26;;;;;;;8.32;7.47;;;8.00;20.80;;;8.23;58.64;100110.66;4897810;29;20559;-71
2022/02/15 01:27:55;;;;;;;9.18;7.18;;;8.10;21.00;;;8.16;58.98;100100.91;4899276;29;20222;-71
2022/02/15 01:30:24;;;;;;;13.02;6.60;;;8.10;21.60;;;8.10;59.11;100097.19;4914838;29;20305;-70
2022/02/15 01:32:54;;;;;;;7.15;6.22;;;8.10;22.10;;;8.03;59.49;100098.22;4917079;29;20198;-69
2022/02/15 01:35:22;;;;;;;11.65;6.65;;;8.00;22.70;;;8.01;59.41;100097.56;4900721;29;20194;-72
2022/02/15 01:37:51;;;;;;;6.90;6.20;;;8.00;23.60;;;8.20;59.21;100097.59;4944958;23;20228;-69
2022/02/15 01:40:22;;;;;;;7.10;5.93;;;8.10;24.10;;;8.14;59.57;100102.97;4967160;28;20204;-68
2022/02/15 01:42:52;;;;;;;9.63;6.72;;;8.10;24.40;;;8.10;59.58;100096.34;4951185;29;20282;-70
2022/02/15 01:45:20;;;;;;;8.63;7.15;;;8.00;24.40;;;8.18;59.22;100099.66;4967166;28;20276;-70
2022/02/15 01:47:50;;;;;;;12.52;6.70;;;8.10;24.30;;;8.14;59.32;100108.38;4964192;28;20219;-69
2022/02/15 01:50:20;;;;;;;8.77;5.80;;;8.10;25.20;;;8.08;59.83;100103.81;4973063;28;20290;-69
2022/02/15 01:52:49;;;;;;;9.35;6.45;;;8.00;25.60;;;8.03;60.04;100104.44;4990514;28;20222;-70
2022/02/15 01:55:18;;;;;;;8.52;6.32;;;8.00;27.00;;;8.21;59.85;100107.34;4974233;28;20195;-70
2022/02/15 01:57:46;;;;;;;10.05;6.53;;;8.10;26.90;;;8.16;59.96;100107.13;4975789;28;20285;-70
2022/02/15 02:00:22;;;;;;;8.43;6.35;;;8.10;27.30;;;8.04;60.46;100105.25;4990134;28;20298;-69
2022/02/15 02:02:58;;;;;;;10.60;6.45;;;8.00;28.50;;;7.97;60.62;100107.09;4973939;28;20274;-69
2022/02/15 02:08:17;;;;;;;8.63;5.78;;;8.00;30.40;;;7.82;61.00;100104.59;4973692;28;20211;-69
2022/02/15 02:10:49;;;;;;;7.70;6.30;;;7.90;32.50;;;7.80;61.49;100109.34;4973842;28;20191;-68
2022/02/15 02:13:34;;;;;;;7.25;6.30;;;7.80;36.00;;;7.68;62.03;100113.66;4973446;28;20578;-69
2022/02/15 02:16:06;;;;;;;8.13;6.25;;;7.70;37.80;;;7.85;61.55;100114.94;4989308;28;20275;-69
2022/02/15 02:18:53;;;;;;;7.95;6.28;;;7.80;38.70;;;7.79;61.87;100119.28;4974932;28;20587;-69
2022/02/15 02:21:38;;;;;;;10.40;6.20;;;7.80;39.80;;;7.66;62.08;100118.41;4989803;28;20273;-69
2022/02/15 02:24:09;;;;;;;8.55;6.35;;;7.70;41.90;;;7.59;62.33;100118.41;4989284;28;20290;-69
2022/02/15 02:26:43;;;;;;;8.30;6.47;;;7.60;44.60;;;7.48;62.72;100124.34;4972808;28;20285;-69
2022/02/15 02:29:11;;;;;;;10.40;5.72;;;7.50;47.40;;;7.43;63.11;100129.50;4989223;28;20195;-69
2022/02/15 02:31:44;;;;;;;11.25;6.47;;;7.50;49.50;;;7.29;63.55;100125.94;4972871;28;20271;-69
2022/02/15 02:34:15;;;;;;;8.60;5.40;;;7.40;54.40;;;7.30;63.39;100127.59;4973098;28;20206;-69
2022/02/15 02:36:48;;;;;;;10.60;6.05;;;7.30;56.20;;;7.30;63.76;100130.28;4989263;28;20243;-69
2022/02/15 02:39:23;;;;;;;12.35;5.82;;;7.30;58.30;;;7.16;64.11;100136.63;4989375;28;20690;-69
2022/02/15 02:41:53;;;;;;;11.88;7.05;;;7.30;61.50;;;7.04;64.84;100129.28;4973165;28;20692;-69
2022/02/15 02:44:21;;;;;;;9.80;6.50;;;7.10;68.70;;;7.00;65.28;100134.25;4973966;28;20194;-68
2022/02/15 02:46:50;;;;;;;10.70;6.05;;;7.10;75.30;;;6.97;65.30;100134.66;4974302;28;20219;-69
2022/02/15 02:49:22;;;;;;;16.23;7.40;;;7.00;80.30;;;7.11;65.24;100135.56;4972974;28;20188;-69
2022/02/15 02:51:52;;;;;;;9.65;6.75;;;7.00;84.40;;;6.97;65.32;100137.34;4974509;28;20214;-69
2022/02/15 02:54:20;;;;;;;8.25;5.38;;;7.00;86.50;;;6.92;65.59;100142.47;4972910;28;20368;-68
2022/02/15 02:56:57;;;;;;;7.35;5.50;;;7.00;89.20;;;6.88;65.90;100143.88;4988940;28;20250;-69
2022/02/15 02:59:25;;;;;;;13.10;6.88;;;7.00;91.20;;;6.78;66.36;100138.00;4973704;28;20282;-70
2022/02/15 03:01:54;;;;;;;10.95;6.50;;;6.90;93.00;;;6.79;66.68;100150.44;4972573;28;20318;-70
2022/02/15 03:04:22;;;;;;;7.90;6.80;;;6.80;94.90;;;6.81;66.47;100153.78;4972692;28;20223;-69
2022/02/15 03:06:52;;;;;;;7.60;6.35;;;6.80;95.30;;;6.75;66.84;100144.63;4972585;28;20215;-68
2022/02/15 03:09:22;;;;;;;11.88;6.80;;;6.80;96.30;;;6.69;66.98;100144.56;4988508;28;20282;-69
2022/02/15 03:11:51;;;;;;;7.78;6.18;;;6.80;97.30;;;6.80;66.99;100152.09;4973867;28;20191;-70
2022/02/15 03:14:20;;;;;;;9.80;6.78;;;6.80;98.50;;;6.63;67.68;100145.38;4972155;28;20282;-68
2022/02/15 03:16:54;;;;;;;10.15;6.35;;;6.80;98.80;;;6.66;67.50;100158.41;4972220;28;20219;-69
2022/02/15 03:19:23;;;;;;;6.57;5.03;;;6.70;99.40;;;6.60;67.73;100162.69;4988709;28;20668;-68
2022/02/15 03:21:53;;;;;;;13.23;6.97;;;6.70;99.30;;;6.48;68.30;100157.03;4988602;28;20250;-68
2022/02/15 03:24:21;;;;;;;8.55;6.25;;;6.60;99.90;;;6.53;68.01;100161.81;4972300;28;20286;-68
2022/02/15 03:26:56;;;;;;;7.85;5.78;;;6.60;99.90;;;6.43;68.48;100162.16;4971971;28;20286;-68
2022/02/15 03:29:25;;;;;;;7.95;5.65;;;6.60;99.90;;;6.49;68.47;100172.13;4971672;28;20199;-69
2022/02/15 03:31:54;;;;;;;6.78;4.80;;;6.60;99.90;;;6.51;67.99;100172.75;4971989;28;20711;-69
2022/02/15 03:34:23;;;;;;;9.45;5.88;;;6.60;99.90;;;6.46;69.20;100171.66;4971830;28;20269;-69
2022/02/15 03:36:53;;;;;;;10.70;6.15;;;6.50;99.90;;;6.50;68.13;100181.00;4971684;28;20229;-69
2022/02/15 03:39:22;;;;;;;8.23;5.43;;;6.60;99.90;;;6.42;68.55;100168.53;4988065;28;20635;-69
2022/02/15 03:44:43;;;;;;;7.40;5.65;;;6.50;99.90;;;6.26;69.00;100176.03;4987895;28;20219;-69
2022/02/15 03:47:17;;;;;;;11.65;5.82;;;6.40;99.90;;;6.31;68.93;100182.50;4988014;28;20231;-69
2022/02/15 03:49:45;;;;;;;7.18;5.45;;;6.40;99.90;;;6.23;69.36;100192.53;4971651;28;20222;-68
2022/02/15 03:52:17;;;;;;;9.25;6.63;;;6.30;99.90;;;6.22;69.65;100186.31;4971757;28;20241;-69
2022/02/15 03:54:47;;;;;;;8.95;6.43;;;6.30;99.90;;;6.11;70.06;100184.13;4971435;28;20664;-69
2022/02/15 03:57:16;;;;;;;8.45;6.10;;;6.20;99.90;;;6.12;70.33;100191.19;4973271;28;20770;-69
2022/02/15 03:59:46;;;;;;;9.88;5.88;;;6.20;99.90;;;6.14;70.00;100189.16;4972261;28;20274;-69
2022/02/15 04:02:20;;;;;;;9.57;6.00;;;6.20;99.90;;;6.19;70.31;100185.88;4988434;28;20229;-68
2022/02/15 04:04:51;;;;;;;11.05;6.65;;;6.30;99.90;;;6.24;69.76;100197.72;4971821;28;20214;-69
2022/02/15 04:07:23;;;;;;;5.30;4.65;;;6.30;99.90;;;6.26;70.58;100189.47;4987936;28;20215;-69
2022/02/15 04:09:51;;;;;;;6.57;4.88;;;6.30;99.90;;;6.27;69.89;100188.44;4971890;28;20222;-70
2022/02/15 04:12:20;;;;;;;7.45;5.93;;;6.30;99.90;;;6.35;70.39;100191.81;4971057;28;20537;-69
2022/02/15 04:14:48;;;;;;;6.88;5.03;;;6.30;99.90;;;6.38;70.31;100196.84;4971437;28;20676;-69
2022/02/15 04:17:20;;;;;;;6.72;4.68;;;6.40;99.90;;;6.39;70.66;100197.66;4971462;28;20687;-69
2022/02/15 04:19:48;;;;;;;8.00;5.15;;;6.40;99.90;;;6.36;70.71;100200.72;4987705;28;20219;-70
2022/02/15 04:22:17;;;;;;;12.30;5.78;;;6.40;99.90;;;6.36;70.50;100198.03;4987658;28;20243;-69
2022/02/15 04:24:48;;;;;;;10.20;6.35;;;6.40;99.90;;;6.30;70.70;100196.94;4971654;28;20188;-69
2022/02/15 04:27:18;;;;;;;10.32;6.00;;;6.40;99.90;;;6.46;70.60;100202.06;4971633;28;20587;-69
2022/02/15 04:29:46;;;;;;;12.80;6.97;;;6.40;99.90;;;6.40;70.68;100202.84;4971112;28;20222;-69
2022/02/15 04:32:15;;;;;;;14.23;6.55;;;6.40;99.90;;;6.52;70.64;100197.78;4970874;28;20198;-69
2022/02/15 04:34:44;;;;;;;12.68;6.78;;;6.50;99.90;;;6.37;71.02;100199.72;4971039;28;20236;-70
2022/02/15 04:37:12;;;;;;;8.35;6.50;;;6.40;99.90;;;6.32;71.59;100197.59;4987178;28;20251;-69
2022/02/15 04:39:41;;;;;;;8.00;6.28;;;6.40;99.90;;;6.38;71.01;100199.53;4972210;28;20202;-69
2022/02/15 04:42:14;;;;;;;7.45;6.60;;;6.40;99.90;;;6.37;71.42;100203.22;4972262;28;20215;-70
2022/02/15 04:44:43;;;;;;;7.82;5.25;;;6.40;99.90;;;6.49;71.35;100207.06;4987565;28;20201;-69
2022/02/15 04:47:17;;;;;;;11.80;6.93;;;6.40;99.90;;;6.51;70.64;100212.25;4987349;28;20262;-69
2022/02/15 04:49:45;;;;;;;7.90;5.22;;;6.50;99.90;;;6.37;70.93;100213.97;4987857;28;20199;-70
2022/02/15 04:52:13;;;;;;;10.45;6.38;;;6.50;99.90;;;6.29;71.49;100222.16;4986911;28;20237;-69
2022/02/15 04:54:43;;;;;;;6.30;5.68;;;6.40;99.90;;;6.22;72.03;100226.63;4970457;28;20206;-68
2022/02/15 04:57:12;;;;;;;12.88;6.10;;;6.30;99.90;;;6.35;71.35;100229.44;4986802;28;20215;-69
2022/02/15 04:59:43;;;;;;;9.18;4.97;;;6.40;99.90;;;6.24;72.19;100227.28;4970475;28;20222;-68
2022/02/15 05:02:21;;;;;;;8.50;6.00;;;6.30;99.90;;;6.46;71.25;100226.25;4970569;28;20699;-69
2022/02/15 05:04:49;;;;;;;12.05;6.88;;;6.40;99.90;;;6.37;71.53;100222.03;4970450;28;20195;-68
2022/02/15 05:07:29;;;;;;;10.50;6.38;;;6.40;99.90;;;6.32;71.60;100219.09;4970747;28;20210;-69
2022/02/15 05:09:57;;;;;;;7.93;5.22;;;6.30;99.90;;;6.34;71.84;100221.59;4972257;28;20219;-69
2022/02/15 05:12:27;;;;;;;8.30;6.03;;;6.40;99.90;;;6.29;71.66;100219.47;4970637;28;20686;-69
2022/02/15 05:14:55;;;;;;;13.65;6.18;;;6.30;99.90;;;6.36;71.84;100236.50;4970631;28;20199;-68
2022/02/15 05:17:43;;;;;;;12.60;7.20;;;6.40;99.90;;;6.35;71.81;100234.81;4970772;28;20595;-69
2022/02/15 05:20:17;;;;;;;7.00;5.65;;;6.40;99.90;;;6.26;72.17;100224.38;4987234;28;20575;-69
2022/02/15 05:22:46;;;;;;;6.95;5.35;;;6.30;99.90;;;6.33;71.86;100228.81;4970714;28;20227;-69
2022/02/15 05:25:15;;;;;;;7.05;6.13;;;6.30;99.90;;;6.37;71.72;100248.91;4973082;28;20242;-70
2022/02/15 05:27:44;;;;;;;6.15;5.28;;;6.30;99.90;;;6.15;72.70;100247.19;4975626;28;20211;-69
2022/02/15 05:30:22;;;;;;;8.68;5.85;;;6.30;99.90;;;6.20;72.66;100242.09;4990440;28;20286;-68
2022/02/15 05:33:09;;;;;;;8.90;5.57;;;6.20;99.90;;;6.22;72.38;100248.13;4973952;28;20200;-69
2022/02/15 05:35:46;;;;;;;10.57;6.60;;;6.20;99.90;;;6.34;72.17;100253.84;4974048;28;20217;-69
2022/02/15 05:38:16;;;;;;;7.82;5.80;;;6.30;99.90;;;6.36;72.26;100258.00;4973900;28;20254;-69
2022/02/15 05:40:47;;;;;;;8.90;5.30;;;6.40;99.90;;;6.38;72.18;100255.97;4974154;28;20211;-70
2022/02/15 05:43:17;;;;;;;10.15;5.45;;;6.30;99.90;;;6.35;72.33;100250.94;4975551;28;20213;-69
2022/02/15 05:45:52;;;;;;;11.40;6.05;;;6.40;99.90;;;6.29;72.35;100251.72;4974381;28;20573;-69
2022/02/15 05:48:25;;;;;;;9.30;6.35;;;6.30;99.90;;;6.27;72.31;100260.97;4990680;28;20219;-69
2022/02/15 05:50:59;;;;;;;6.43;5.15;;;6.30;99.90;;;6.26;72.48;100257.47;4973872;28;20192;-69
2022/02/15 05:53:37;;;;;;;9.85;5.90;;;6.30;99.90;;;6.29;72.60;100261.66;4973981;28;20202;-69
2022/02/15 05:56:06;;;;;;;10.30;6.50;;;6.30;99.90;;;6.30;72.49;100266.81;4974165;28;20210;-68
2022/02/15 05:58:46;;;;;;;12.02;6.68;;;6.30;99.90;;;6.24;72.70;100281.03;4974083;28;20191;-69
2022/02/15 06:01:35;;;;;;;8.07;5.22;;;6.30;99.90;;;6.30;72.74;100284.78;4973694;28;20207;-69
2022/02/15 06:04:13;;;;;;;9.50;6.82;;;6.30;99.90;;;6.22;72.86;100277.69;4973950;28;20227;-69
2022/02/15 06:06:49;;;;;;;9.07;5.90;;;6.20;99.90;;;6.18;72.80;100284.44;4973816;28;20278;-69
2022/02/15 06:09:19;;;;;;;10.65;7.20;;;6.20;99.90;;;6.19;72.85;100288.81;4968348;28;20684;-69
2022/02/15 06:11:48;;;;;;;7.13;5.55;;;6.20;99.90;;;6.14;73.30;100290.38;4957134;28;20219;-67
2022/02/15 06:14:22;;;;;;;9.90;6.57;;;6.20;99.90;;;6.15;73.29;100289.38;4954406;29;20274;-67
2022/02/15 06:16:51;;;;;;;12.60;6.53;;;6.20;99.90;;;6.13;73.32;100300.31;4959940;28;20242;-68
2022/02/15 06:19:26;;;;;;;8.52;6.53;;;6.10;99.90;;;6.11;73.37;100297.78;4974052;28;20222;-68
2022/02/15 06:21:55;;;;;;;11.05;6.97;;;6.10;99.90;;;6.20;72.92;100306.56;4974131;28;20215;-69
2022/02/15 06:24:29;;;;;;;14.45;7.13;;;6.20;99.90;;;6.22;72.98;100307.22;4973718;28;20611;-69
2022/02/15 06:27:21;;;;;;;9.38;6.95;;;6.20;99.90;;;6.29;72.85;100310.84;4973746;28;20559;-69
2022/02/15 06:30:06;;;;;;;10.85;7.35;;;6.30;99.90;;;6.25;72.80;100317.59;4973835;28;20290;-69
2022/02/15 06:32:51;;;;;;;8.70;6.25;;;6.30;99.90;;;6.29;72.98;100316.22;4973767;28;20187;-69
2022/02/15 06:35:21;;;;;;;11.88;7.38;;;6.30;99.90;;;6.40;72.07;100322.94;4973071;28;20199;-70
2022/02/15 06:37:57;;;;;;;9.23;6.63;;;6.30;99.90;;;6.42;72.23;100321.75;4973363;28;20273;-69
2022/02/15 06:40:27;;;;;;;7.82;6.38;;;6.40;99.90;;;6.33;72.58;100322.03;4973350;28;20762;-69
2022/02/15 06:42:59;;;;;;;11.40;6.78;;;6.30;99.90;;;6.40;72.02;100328.31;4973195;28;20219;-68
2022/02/15 06:45:29;;;;;;;9.73;6.55;;;6.30;99.90;;;6.47;71.81;100327.38;4972943;28;20622;-68
2022/02/15 06:47:59;;;;;;;7.60;6.20;;;6.40;99.90;;;6.47;71.83;100335.44;4972981;28;20291;-68
2022/02/15 06:50:30;;;;;;;10.45;6.22;;;6.40;99.90;;;6.52;71.54;100343.78;4973106;28;20619;-69
2022/02/15 06:53:11;;;;;;;9.18;6.28;;;6.40;99.90;;;6.59;71.29;100341.16;4974334;28;20221;-69
2022/02/15 06:56:12;;;;;;;11.57;6.03;;;6.50;99.90;;;6.62;71.03;100345.31;4974399;28;20191;-68
2022/02/15 06:58:48;;;;;;;10.35;5.95;;;6.60;99.90;;;6.64;70.69;100351.31;4974965;28;20202;-69
2022/02/15 07:01:24;;;;;;;11.57;5.57;;;6.60;99.90;;;6.71;70.68;100350.41;4974442;28;20194;-69
2022/02/15 07:03:54;;;;;;;12.52;5.82;;;6.60;99.90;;;6.76;70.20;100349.81;4973678;28;20553;-70
2022/02/15 07:06:22;;;;;;;7.70;4.85;;;6.70;99.90;;;6.79;69.92;100360.19;4973242;28;20333;-70
2022/02/15 07:08:50;;;;;;;7.88;4.30;;;6.70;99.90;;;6.83;69.88;100353.41;4975396;28;20196;-70
2022/02/15 07:11:21;;;;;;;9.45;5.32;;;6.80;99.90;;;6.91;69.50;100358.69;4975541;28;20202;-71
2022/02/15 07:13:52;;;;;;;11.07;5.70;;;6.80;99.90;;;6.94;69.51;100358.28;4974971;28;20735;-70
2022/02/15 07:16:23;;;;;;;10.63;4.85;;;6.80;99.90;;;6.94;69.10;100353.75;4974166;28;20232;-72
2022/02/15 07:18:53;;;;;;;8.82;5.03;;;6.90;99.90;;;7.01;69.31;100361.88;4974243;28;20192;-71
2022/02/15 07:21:49;;;;;;;10.05;5.25;;;6.90;99.90;;;7.04;68.69;100361.47;4975006;28;20710;-71
2022/02/15 07:24:41;;;;;;;10.10;5.15;;;7.00;99.90;;;7.06;68.46;100359.44;4966475;28;20246;-72
2022/02/15 07:27:27;;;;;;;10.02;5.68;;;7.00;99.90;;;6.99;68.71;100367.44;4972822;28;20222;-72
2022/02/15 07:29:58;;;;;;;16.70;6.20;;;6.90;99.90;;;7.13;68.48;100357.63;4973611;28;20286;-72
2022/02/15 07:32:48;;;;;;;8.18;5.55;;;7.00;99.90;;;7.12;68.32;100353.28;4974359;28;20285;-70
2022/02/15 07:35:18;;;;;;;12.88;6.43;;;7.00;99.90;;;7.12;68.28;100355.13;4984502;28;20203;-75
2022/02/15 07:37:47;;;;;;;8.05;5.72;;;7.00;99.90;;;7.13;68.32;100351.41;4986143;23;20230;-70
2022/02/15 07:40:19;;;;;;;9.95;6.35;;;7.00;99.90;;;7.17;67.48;100361.59;4975377;28;20298;-70
2022/02/15 07:42:47;;;;;;;11.77;6.40;;;7.10;99.90;;;7.14;67.63;100363.84;4972424;28;20298;-69
2022/02/15 07:45:18;;;;;;;8.35;6.10;;;7.10;99.90;;;7.18;67.58;100371.34;4973759;28;20538;-72
2022/02/15 07:47:51;;;;;;;16.15;6.82;;;7.10;99.90;;;7.15;67.50;100374.44;4972550;28;20623;-70
2022/02/15 07:50:23;;;;;;;7.82;6.50;;;7.10;99.90;;;7.19;67.39;100377.56;4973797;28;20303;-71
2022/02/15 07:52:54;;;;;;;10.98;5.93;;;7.10;99.90;;;7.20;67.74;100377.38;4973246;28;20186;-71
2022/02/15 07:55:23;;;;;;;16.92;7.18;;;7.10;99.90;;;7.40;67.25;100386.47;4973215;28;20556;-70
2022/02/15 07:57:52;;;;;;;8.48;6.05;;;7.20;99.90;;;7.37;67.14;100388.69;4973315;28;20709;-72
2022/02/15 08:00:21;;;;;;;12.32;5.72;;;7.30;99.90;;;7.41;66.86;100403.44;4973257;28;20215;-72
2022/02/15 08:02:53;;;;;;;9.27;6.97;;;7.30;99.90;;;7.53;66.43;100401.06;4972577;28;20709;-72
2022/02/15 08:05:23;;;;;;;10.38;6.80;;;7.40;99.90;;;7.52;66.24;100402.09;4972781;28;20210;-71
2022/02/15 08:07:56;;;;;;;11.73;6.90;;;7.40;99.20;;;7.53;66.22;100409.13;4971270;28;20199;-71
2022/02/15 08:10:26;;;;;;;11.85;7.22;;;7.40;99.70;;;7.68;66.13;100410.72;4972144;28;20202;-72
2022/02/15 08:12:57;;;;;;;9.90;5.53;;;7.50;99.20;;;7.77;65.94;100406.84;4973305;28;20191;-71
2022/02/15 08:15:30;;;;;;;11.70;6.10;;;7.60;98.20;;;7.73;65.76;100412.84;4971942;28;20192;-71
2022/02/15 08:18:02;;;;;;;12.60;6.80;;;7.60;97.00;;;7.77;65.57;100414.09;4973082;28;20180;-72
2022/02/15 08:20:32;;;;;;;18.70;7.57;;;7.60;96.50;;;7.86;65.24;100419.16;4973119;28;20548;-72
2022/02/15 08:23:00;;;;;;;9.85;6.32;;;7.70;95.20;;;7.97;64.97;100420.47;4971622;28;20651;-72
2022/02/15 08:25:29;;;;;;;6.07;4.93;;;7.80;95.10;;;8.12;64.56;100423.91;4972900;28;20206;-71
2022/02/15 08:27:58;;;;;;;10.00;7.30;;;7.90;94.40;;;8.21;64.24;100420.00;4973272;28;20588;-71
2022/02/15 08:30:27;;;;;;;9.05;6.13;;;8.10;92.70;;;8.19;64.26;100419.34;4973221;28;20372;-71
2022/02/15 08:32:55;;;;;;;11.80;6.50;;;8.00;91.90;;;8.43;63.53;100419.94;4973007;28;20186;-70
2022/02/15 08:35:25;;;;;;;13.80;6.70;;;8.20;88.80;;;8.48;63.18;100430.94;4973386;28;20642;-72
2022/02/15 08:37:54;;;;;;;8.38;6.13;;;8.30;84.20;;;8.60;62.79;100432.06;4973239;28;20666;-71
2022/02/15 08:40:24;;;;;;;7.50;6.03;;;8.40;81.30;;;8.90;62.56;100419.94;4972913;28;20231;-71
2022/02/15 08:42:52;;;;;;;10.00;6.50;;;8.60;81.20;;;9.12;61.57;100421.44;4971662;28;20203;-70
2022/02/15 08:45:22;;;;;;;14.65;5.55;;;8.80;71.90;;;9.52;61.01;100429.63;4973113;28;20370;-71
2022/02/15 08:47:51;;;;;;;12.82;5.95;;;9.10;68.30;;;9.70;60.36;100429.84;4973635;28;20539;-71
2022/02/15 08:50:19;;;;;;;11.68;6.32;;;9.30;57.60;;;9.63;60.13;100429.03;4972791;28;20203;-70
2022/02/15 08:52:49;;;;;;;11.07;5.75;;;9.40;51.90;;;9.81;59.77;100431.91;4972809;28;20183;-74
2022/02/15 08:55:18;;;;;;;10.57;5.32;;;9.50;50.90;;;9.80;59.47;100434.81;4972501;28;20179;-71
2022/02/15 08:57:46;;;;;;;6.95;4.65;;;9.60;45.60;;;9.69;59.97;100432.72;4973277;28;20725;-72
2022/02/15 09:00:17;;;;;;;9.23;4.90;;;9.50;47.80;;;9.80;59.52;100441.06;4978799;28;20245;-72
2022/02/15 09:02:46;;;;;;;10.70;5.22;;;9.50;47.20;;;9.65;60.12;100431.50;4978636;28;20186;-72
2022/02/15 09:05:14;;;;;;;10.57;6.10;;;9.50;45.70;;;9.86;59.51;100456.44;4993837;28;20203;-70
2022/02/15 09:07:43;;;;;;;8.65;6.18;;;9.60;44.70;;;9.71;59.65;100455.00;4977296;28;20597;-71
2022/02/15 09:10:13;;;;;;;5.50;4.75;;;9.50;43.60;;;9.87;59.45;100458.13;4978716;28;20206;-70
2022/02/15 09:12:42;;;;;;;8.80;4.70;;;9.60;45.20;;;9.57;59.86;100454.16;4977854;28;20625;-71
2022/02/15 09:15:13;;;;;;;8.30;5.10;;;9.40;43.10;;;9.99;59.35;100456.44;4977473;28;20654;-69
2022/02/15 09:17:42;;;;;;;14.60;5.88;;;9.60;44.90;;;10.15;58.31;100454.34;4978835;28;20191;-69
2022/02/15 09:20:12;;;;;;;9.57;6.75;;;9.80;38.80;;;10.16;58.54;100454.19;4979499;28;20218;-72
2022/02/15 09:22:41;;;;;;;12.07;7.18;;;9.90;38.00;;;10.17;58.40;100455.81;4979020;28;20187;-72
2022/02/15 09:25:11;;;;;;;9.33;6.83;;;10.00;35.50;;;10.19;58.77;100455.63;4978850;28;20265;-70
2022/02/15 09:27:40;;;;;;;12.30;5.53;;;10.00;35.90;;;10.34;58.32;100467.88;4979094;28;20447;-73
2022/02/15 09:30:09;;;;;;;8.87;5.00;;;10.10;35.60;;;10.23;58.34;100459.56;4977723;28;20447;-74
2022/02/15 09:32:38;;;;;;;11.70;5.38;;;10.10;33.10;;;10.27;58.31;100458.94;4977589;28;20452;-71
2022/02/15 09:35:07;;;;;;;7.93;5.82;;;10.10;34.20;;;10.06;58.35;100461.84;4978711;28;20612;-70
2022/02/15 09:37:35;;;;;;;11.93;5.55;;;9.90;33.50;;;10.30;58.39;100455.81;4979368;28;20211;-71
2022/02/15 09:40:06;;;;;;;15.48;5.75;;;10.00;34.00;;;10.41;57.66;100449.75;4980287;28;20261;-71
2022/02/15 09:42:39;;;;;;;11.20;5.68;;;10.10;31.00;;;10.63;57.20;100450.31;4979947;28;20202;-69
2022/02/15 09:45:11;;;;;;;9.17;5.10;;;10.20;30.20;;;10.70;56.78;100448.41;4979776;28;20250;-71
2022/02/15 09:47:42;;;;;;;9.80;5.97;;;10.40;28.50;;;10.40;56.94;100447.28;4978964;28;20442;-72
2022/02/15 09:50:11;;;;;;;8.45;5.75;;;10.30;26.30;;;10.37;57.04;100456.63;4978946;28;20858;-70
2022/02/15 09:52:45;;;;;;;9.98;7.00;;;10.20;26.30;;;10.14;57.43;100455.38;4979172;28;20591;-70
2022/02/15 09:55:14;;;;;;;11.00;6.23;;;10.00;26.60;;;10.13;57.47;100453.72;4979359;28;20194;-71
2022/02/15 09:57:45;;;;;;;14.60;5.95;;;10.00;27.10;;;10.06;57.66;100466.41;4980188;28;20434;-72
2022/02/15 10:00:15;;;;;;;8.35;5.60;;;9.90;28.10;;;10.39;57.17;100467.25;4981815;28;20519;-72
2022/02/15 10:02:44;;;;;;;10.75;6.55;;;10.10;27.60;;;10.56;56.52;100463.03;4986471;28;20191;-69
2022/02/15 10:05:18;;;;;;;7.32;6.25;;;10.20;25.90;;;10.85;55.96;100467.09;4991077;28;20202;-70
2022/02/15 10:07:53;;;;;;;10.27;6.93;;;10.40;25.30;;;10.77;55.81;100476.28;4987081;28;20187;-71
2022/02/15 10:10:32;;;;;;;8.83;6.43;;;10.50;23.50;;;10.76;55.67;100466.50;4960476;28;20459;-73
2022/02/15 10:13:05;;;;;;;12.48;7.32;;;10.50;23.10;;;10.66;56.04;100463.41;4956213;28;20432;-72
2022/02/15 10:15:54;;;;;;;9.03;7.20;;;10.50;23.20;;;10.62;55.99;100473.00;4956643;28;20745;-70
2022/02/15 10:18:25;;;;;;;11.30;9.13;;;10.50;22.80;;;10.61;56.34;100476.75;4956385;28;20447;-70
2022/02/15 10:20:58;;;;;;;10.02;7.03;;;10.40;23.50;;;10.85;56.08;100473.34;4956480;28;20200;-72
2022/02/15 10:23:30;;;;;;;8.40;7.28;;;10.50;23.60;;;11.17;55.25;100468.84;4966611;28;20253;-72
2022/02/15 10:25:59;;;;;;;10.95;7.68;;;10.70;22.70;;;10.71;55.47;100471.72;4968595;28;20251;-72
2022/02/15 10:28:31;;;;;;;13.30;8.40;;;10.60;20.70;;;10.44;56.19;100486.38;4968051;28;20273;-72
2022/02/15 10:31:03;;;;;;;11.63;7.22;;;10.40;21.40;;;10.53;56.27;100490.50;4962619;28;20394;-72
2022/02/15 10:33:35;;;;;;;8.52;7.57;;;10.30;22.70;;;10.60;56.07;100495.91;4956353;28;20690;-70
2022/02/15 10:36:06;;;;;;;9.80;7.25;;;10.40;22.40;;;10.63;55.94;100495.47;4955401;28;20188;-70
2022/02/15 10:38:38;;;;;;;8.80;6.97;;;10.40;21.70;;;10.95;55.43;100489.13;4955991;28;20215;-70
2022/02/15 10:41:10;;;;;;;13.07;7.87;;;10.60;21.70;;;10.82;55.28;100491.88;4959172;28;20180;-71
2022/02/15 10:43:48;;;;;;;10.23;6.63;;;10.60;20.40;;;10.77;55.20;100492.53;4974927;28;20427;-73